sensor_id;sensor_type;location;lat;lon;timestamp;P1;durP1;ratioP1;P2;durP2;ratioP2
4448;SDS011;2237;51.870;6.160;2023-05-07T00:00:54;7.50;;;5.90;;
4448;SDS011;2237;51.870;6.160;2023-05-07T00:03:21;8.43;;;5.28;;
4448;SDS011;2237;51.870;6.160;2023-05-07T00:05:48;8.45;;;5.60;;
4448;SDS011;2237;51.870;6.160;2023-05-07T00:08:14;8.73;;;5.88;;
4448;SDS011;2237;51.870;6.160;2023-05-07T00:10:41;9.38;;;6.15;;
4448;SDS011;2237;51.870;6.160;2023-05-07T00:13:07;10.65;;;6.32;;
4448;SDS011;2237;51.870;6.160;2023-05-07T00:15:34;8.32;;;5.85;;
4448;SDS011;2237;51.870;6.160;2023-05-07T00:18:00;9.68;;;6.18;;
4448;SDS011;2237;51.870;6.160;2023-05-07T00:20:27;8.57;;;6.22;;
4448;SDS011;2237;51.870;6.160;2023-05-07T00:22:53;9.68;;;6.50;;
4448;SDS011;2237;51.870;6.160;2023-05-07T00:25:20;7.78;;;6.07;;
4448;SDS011;2237;51.870;6.160;2023-05-07T00:27:46;9.43;;;6.53;;
4448;SDS011;2237;51.870;6.160;2023-05-07T00:30:13;9.05;;;5.72;;
4448;SDS011;2237;51.870;6.160;2023-05-07T00:32:39;9.20;;;5.72;;
4448;SDS011;2237;51.870;6.160;2023-05-07T00:35:06;8.25;;;5.75;;
4448;SDS011;2237;51.870;6.160;2023-05-07T00:37:33;8.70;;;5.85;;
4448;SDS011;2237;51.870;6.160;2023-05-07T00:39:59;10.95;;;6.22;;
4448;SDS011;2237;51.870;6.160;2023-05-07T00:42:26;8.85;;;6.45;;
4448;SDS011;2237;51.870;6.160;2023-05-07T00:44:52;8.55;;;6.35;;
4448;SDS011;2237;51.870;6.160;2023-05-07T00:47:18;8.77;;;5.43;;
4448;SDS011;2237;51.870;6.160;2023-05-07T00:49:45;7.25;;;5.28;;
4448;SDS011;2237;51.870;6.160;2023-05-07T00:52:13;11.15;;;6.15;;
4448;SDS011;2237;51.870;6.160;2023-05-07T00:54:41;7.22;;;5.10;;
4448;SDS011;2237;51.870;6.160;2023-05-07T00:57:09;10.00;;;5.57;;
4448;SDS011;2237;51.870;6.160;2023-05-07T00:59:37;9.35;;;5.70;;
4448;SDS011;2237;51.870;6.160;2023-05-07T01:02:04;7.22;;;5.45;;
4448;SDS011;2237;51.870;6.160;2023-05-07T01:04:30;7.82;;;5.13;;
4448;SDS011;2237;51.870;6.160;2023-05-07T01:06:57;9.45;;;6.10;;
4448;SDS011;2237;51.870;6.160;2023-05-07T01:09:26;9.30;;;6.03;;
4448;SDS011;2237;51.870;6.160;2023-05-07T01:11:53;7.97;;;6.10;;
4448;SDS011;2237;51.870;6.160;2023-05-07T01:14:21;7.65;;;5.88;;
4448;SDS011;2237;51.870;6.160;2023-05-07T01:16:48;8.75;;;5.82;;
4448;SDS011;2237;51.870;6.160;2023-05-07T01:19:17;9.98;;;6.63;;
4448;SDS011;2237;51.870;6.160;2023-05-07T01:21:46;11.32;;;6.82;;
4448;SDS011;2237;51.870;6.160;2023-05-07T01:24:14;9.30;;;6.85;;
4448;SDS011;2237;51.870;6.160;2023-05-07T01:26:41;9.15;;;6.53;;
4448;SDS011;2237;51.870;6.160;2023-05-07T01:29:08;11.35;;;7.50;;
4448;SDS011;2237;51.870;6.160;2023-05-07T01:31:35;10.60;;;7.05;;
4448;SDS011;2237;51.870;6.160;2023-05-07T01:34:03;11.85;;;7.80;;
4448;SDS011;2237;51.870;6.160;2023-05-07T01:36:32;11.90;;;8.30;;
4448;SDS011;2237;51.870;6.160;2023-05-07T01:38:59;13.57;;;8.30;;
4448;SDS011;2237;51.870;6.160;2023-05-07T01:41:26;12.00;;;7.90;;
4448;SDS011;2237;51.870;6.160;2023-05-07T01:43:52;12.43;;;8.20;;
4448;SDS011;2237;51.870;6.160;2023-05-07T01:46:21;11.43;;;8.25;;
4448;SDS011;2237;51.870;6.160;2023-05-07T01:48:47;11.82;;;8.50;;
4448;SDS011;2237;51.870;6.160;2023-05-07T01:51:15;12.23;;;8.20;;
4448;SDS011;2237;51.870;6.160;2023-05-07T01:53:42;13.27;;;8.55;;
4448;SDS011;2237;51.870;6.160;2023-05-07T01:56:09;13.50;;;8.40;;
4448;SDS011;2237;51.870;6.160;2023-05-07T01:58:36;13.48;;;8.50;;
4448;SDS011;2237;51.870;6.160;2023-05-07T02:01:02;14.95;;;8.68;;
4448;SDS011;2237;51.870;6.160;2023-05-07T02:03:29;12.85;;;8.60;;
4448;SDS011;2237;51.870;6.160;2023-05-07T02:05:55;12.93;;;8.43;;
4448;SDS011;2237;51.870;6.160;2023-05-07T02:08:22;13.40;;;8.75;;
4448;SDS011;2237;51.870;6.160;2023-05-07T02:10:48;13.27;;;9.23;;
4448;SDS011;2237;51.870;6.160;2023-05-07T02:13:15;12.90;;;9.55;;
4448;SDS011;2237;51.870;6.160;2023-05-07T02:15:42;12.63;;;9.05;;
4448;SDS011;2237;51.870;6.160;2023-05-07T02:18:10;15.40;;;9.15;;
4448;SDS011;2237;51.870;6.160;2023-05-07T02:20:36;12.15;;;8.95;;
4448;SDS011;2237;51.870;6.160;2023-05-07T02:23:03;11.63;;;8.98;;
4448;SDS011;2237;51.870;6.160;2023-05-07T02:25:29;12.35;;;8.65;;
4448;SDS011;2237;51.870;6.160;2023-05-07T02:27:56;12.55;;;8.82;;
4448;SDS011;2237;51.870;6.160;2023-05-07T02:30:22;12.88;;;8.55;;
4448;SDS011;2237;51.870;6.160;2023-05-07T02:32:49;12.50;;;8.77;;
4448;SDS011;2237;51.870;6.160;2023-05-07T02:35:16;13.93;;;9.55;;
4448;SDS011;2237;51.870;6.160;2023-05-07T02:37:42;14.13;;;9.68;;
4448;SDS011;2237;51.870;6.160;2023-05-07T02:40:09;14.25;;;9.95;;
4448;SDS011;2237;51.870;6.160;2023-05-07T02:42:37;14.07;;;9.43;;
4448;SDS011;2237;51.870;6.160;2023-05-07T02:45:04;16.40;;;10.20;;
4448;SDS011;2237;51.870;6.160;2023-05-07T02:47:30;13.73;;;9.52;;
4448;SDS011;2237;51.870;6.160;2023-05-07T02:49:57;14.32;;;9.82;;
4448;SDS011;2237;51.870;6.160;2023-05-07T02:52:23;13.95;;;9.55;;
4448;SDS011;2237;51.870;6.160;2023-05-07T02:54:50;16.27;;;10.88;;
4448;SDS011;2237;51.870;6.160;2023-05-07T02:57:16;15.93;;;10.02;;
4448;SDS011;2237;51.870;6.160;2023-05-07T02:59:42;16.60;;;10.75;;
4448;SDS011;2237;51.870;6.160;2023-05-07T03:02:09;15.88;;;10.98;;
4448;SDS011;2237;51.870;6.160;2023-05-07T03:04:36;14.02;;;9.63;;
4448;SDS011;2237;51.870;6.160;2023-05-07T03:07:03;13.23;;;9.48;;
4448;SDS011;2237;51.870;6.160;2023-05-07T03:09:29;17.52;;;9.90;;
4448;SDS011;2237;51.870;6.160;2023-05-07T03:11:56;14.77;;;9.45;;
4448;SDS011;2237;51.870;6.160;2023-05-07T03:14:22;14.93;;;10.13;;
4448;SDS011;2237;51.870;6.160;2023-05-07T03:16:49;14.52;;;9.85;;
4448;SDS011;2237;51.870;6.160;2023-05-07T03:19:15;16.40;;;9.45;;
4448;SDS011;2237;51.870;6.160;2023-05-07T03:21:42;15.95;;;10.20;;
4448;SDS011;2237;51.870;6.160;2023-05-07T03:24:08;14.38;;;10.13;;
4448;SDS011;2237;51.870;6.160;2023-05-07T03:26:34;15.88;;;10.10;;
4448;SDS011;2237;51.870;6.160;2023-05-07T03:29:01;14.30;;;10.52;;
4448;SDS011;2237;51.870;6.160;2023-05-07T03:31:27;16.48;;;10.80;;
4448;SDS011;2237;51.870;6.160;2023-05-07T03:33:54;16.30;;;10.45;;
4448;SDS011;2237;51.870;6.160;2023-05-07T03:36:22;15.52;;;9.63;;
4448;SDS011;2237;51.870;6.160;2023-05-07T03:38:49;14.90;;;10.05;;
4448;SDS011;2237;51.870;6.160;2023-05-07T03:41:16;14.07;;;9.75;;
4448;SDS011;2237;51.870;6.160;2023-05-07T03:43:42;17.08;;;10.18;;
4448;SDS011;2237;51.870;6.160;2023-05-07T03:46:08;18.17;;;10.77;;
4448;SDS011;2237;51.870;6.160;2023-05-07T03:48:35;15.38;;;9.73;;
4448;SDS011;2237;51.870;6.160;2023-05-07T03:51:01;17.70;;;11.02;;
4448;SDS011;2237;51.870;6.160;2023-05-07T03:53:27;17.50;;;10.70;;
4448;SDS011;2237;51.870;6.160;2023-05-07T03:55:54;14.90;;;10.55;;
4448;SDS011;2237;51.870;6.160;2023-05-07T03:58:20;17.23;;;9.75;;
4448;SDS011;2237;51.870;6.160;2023-05-07T04:00:47;19.27;;;10.90;;
4448;SDS011;2237;51.870;6.160;2023-05-07T04:03:15;15.98;;;10.65;;
4448;SDS011;2237;51.870;6.160;2023-05-07T04:05:41;15.35;;;10.25;;
4448;SDS011;2237;51.870;6.160;2023-05-07T04:08:08;14.35;;;8.23;;
4448;SDS011;2237;51.870;6.160;2023-05-07T04:10:34;15.90;;;10.30;;
4448;SDS011;2237;51.870;6.160;2023-05-07T04:13:00;14.98;;;10.63;;
4448;SDS011;2237;51.870;6.160;2023-05-07T04:15:27;14.85;;;9.02;;
4448;SDS011;2237;51.870;6.160;2023-05-07T04:17:53;15.20;;;10.68;;
4448;SDS011;2237;51.870;6.160;2023-05-07T04:20:20;15.40;;;10.35;;
4448;SDS011;2237;51.870;6.160;2023-05-07T04:22:46;14.82;;;10.32;;
4448;SDS011;2237;51.870;6.160;2023-05-07T04:25:12;15.02;;;10.57;;
4448;SDS011;2237;51.870;6.160;2023-05-07T04:27:38;13.23;;;9.32;;
4448;SDS011;2237;51.870;6.160;2023-05-07T04:30:05;14.13;;;9.75;;
4448;SDS011;2237;51.870;6.160;2023-05-07T04:32:32;15.48;;;9.80;;
4448;SDS011;2237;51.870;6.160;2023-05-07T04:34:59;13.77;;;10.32;;
4448;SDS011;2237;51.870;6.160;2023-05-07T04:37:25;15.63;;;10.27;;
4448;SDS011;2237;51.870;6.160;2023-05-07T04:39:52;15.70;;;10.30;;
4448;SDS011;2237;51.870;6.160;2023-05-07T04:42:18;17.48;;;10.27;;
4448;SDS011;2237;51.870;6.160;2023-05-07T04:44:45;16.70;;;10.40;;
4448;SDS011;2237;51.870;6.160;2023-05-07T04:47:11;13.30;;;9.57;;
4448;SDS011;2237;51.870;6.160;2023-05-07T04:49:38;13.40;;;9.80;;
4448;SDS011;2237;51.870;6.160;2023-05-07T04:52:04;14.48;;;9.80;;
4448;SDS011;2237;51.870;6.160;2023-05-07T04:54:31;13.13;;;9.30;;
4448;SDS011;2237;51.870;6.160;2023-05-07T04:56:57;15.20;;;10.00;;
4448;SDS011;2237;51.870;6.160;2023-05-07T04:59:23;15.23;;;9.80;;
4448;SDS011;2237;51.870;6.160;2023-05-07T05:01:50;16.73;;;9.65;;
4448;SDS011;2237;51.870;6.160;2023-05-07T05:04:16;14.55;;;9.27;;
4448;SDS011;2237;51.870;6.160;2023-05-07T05:06:42;15.18;;;9.43;;
4448;SDS011;2237;51.870;6.160;2023-05-07T05:09:09;15.82;;;10.02;;
4448;SDS011;2237;51.870;6.160;2023-05-07T05:11:35;15.98;;;9.70;;
4448;SDS011;2237;51.870;6.160;2023-05-07T05:14:02;13.65;;;9.43;;
4448;SDS011;2237;51.870;6.160;2023-05-07T05:16:28;14.63;;;9.80;;
4448;SDS011;2237;51.870;6.160;2023-05-07T05:18:54;13.15;;;9.88;;
4448;SDS011;2237;51.870;6.160;2023-05-07T05:21:21;15.07;;;9.52;;
4448;SDS011;2237;51.870;6.160;2023-05-07T05:23:47;14.05;;;9.40;;
4448;SDS011;2237;51.870;6.160;2023-05-07T05:26:14;14.00;;;9.38;;
4448;SDS011;2237;51.870;6.160;2023-05-07T05:28:40;11.82;;;8.55;;
4448;SDS011;2237;51.870;6.160;2023-05-07T05:31:06;14.20;;;9.60;;
4448;SDS011;2237;51.870;6.160;2023-05-07T05:33:33;13.80;;;9.57;;
4448;SDS011;2237;51.870;6.160;2023-05-07T05:35:59;15.80;;;10.25;;
4448;SDS011;2237;51.870;6.160;2023-05-07T05:38:26;15.18;;;10.65;;
4448;SDS011;2237;51.870;6.160;2023-05-07T05:40:52;14.75;;;9.35;;
4448;SDS011;2237;51.870;6.160;2023-05-07T05:43:21;13.35;;;9.82;;
4448;SDS011;2237;51.870;6.160;2023-05-07T05:45:47;14.73;;;9.38;;
4448;SDS011;2237;51.870;6.160;2023-05-07T05:48:14;17.33;;;10.02;;
4448;SDS011;2237;51.870;6.160;2023-05-07T05:50:41;17.23;;;9.73;;
4448;SDS011;2237;51.870;6.160;2023-05-07T05:53:08;14.15;;;8.88;;
4448;SDS011;2237;51.870;6.160;2023-05-07T05:55:34;15.13;;;9.13;;
4448;SDS011;2237;51.870;6.160;2023-05-07T05:58:01;12.43;;;8.95;;
4448;SDS011;2237;51.870;6.160;2023-05-07T06:00:27;12.68;;;9.13;;
4448;SDS011;2237;51.870;6.160;2023-05-07T06:02:54;13.20;;;9.07;;
4448;SDS011;2237;51.870;6.160;2023-05-07T06:05:20;13.93;;;8.98;;
4448;SDS011;2237;51.870;6.160;2023-05-07T06:07:47;13.45;;;8.80;;
4448;SDS011;2237;51.870;6.160;2023-05-07T06:10:13;11.82;;;8.35;;
4448;SDS011;2237;51.870;6.160;2023-05-07T06:12:40;13.15;;;8.45;;
4448;SDS011;2237;51.870;6.160;2023-05-07T06:15:06;18.05;;;9.07;;
4448;SDS011;2237;51.870;6.160;2023-05-07T06:17:33;12.38;;;8.30;;
4448;SDS011;2237;51.870;6.160;2023-05-07T06:20:00;13.05;;;8.10;;
4448;SDS011;2237;51.870;6.160;2023-05-07T06:22:26;12.63;;;8.48;;
4448;SDS011;2237;51.870;6.160;2023-05-07T06:24:52;14.23;;;8.52;;
4448;SDS011;2237;51.870;6.160;2023-05-07T06:27:19;13.43;;;8.32;;
4448;SDS011;2237;51.870;6.160;2023-05-07T06:29:47;14.32;;;8.27;;
4448;SDS011;2237;51.870;6.160;2023-05-07T06:32:14;12.77;;;8.35;;
4448;SDS011;2237;51.870;6.160;2023-05-07T06:34:41;13.18;;;8.30;;
4448;SDS011;2237;51.870;6.160;2023-05-07T06:37:07;11.88;;;8.18;;
4448;SDS011;2237;51.870;6.160;2023-05-07T06:39:33;14.32;;;8.88;;
4448;SDS011;2237;51.870;6.160;2023-05-07T06:42:00;12.43;;;8.55;;
4448;SDS011;2237;51.870;6.160;2023-05-07T06:44:28;14.10;;;8.43;;
4448;SDS011;2237;51.870;6.160;2023-05-07T06:46:55;12.32;;;8.75;;
4448;SDS011;2237;51.870;6.160;2023-05-07T06:49:21;11.88;;;8.13;;
4448;SDS011;2237;51.870;6.160;2023-05-07T06:51:47;13.02;;;8.55;;
4448;SDS011;2237;51.870;6.160;2023-05-07T06:54:14;11.73;;;8.00;;
4448;SDS011;2237;51.870;6.160;2023-05-07T06:56:40;11.60;;;8.20;;
4448;SDS011;2237;51.870;6.160;2023-05-07T06:59:07;11.40;;;8.13;;
4448;SDS011;2237;51.870;6.160;2023-05-07T07:01:34;13.75;;;8.35;;
4448;SDS011;2237;51.870;6.160;2023-05-07T07:04:00;15.20;;;8.90;;
4448;SDS011;2237;51.870;6.160;2023-05-07T07:06:26;12.30;;;8.00;;
4448;SDS011;2237;51.870;6.160;2023-05-07T07:08:53;14.57;;;8.43;;
4448;SDS011;2237;51.870;6.160;2023-05-07T07:11:20;11.60;;;7.68;;
4448;SDS011;2237;51.870;6.160;2023-05-07T07:13:46;17.25;;;8.20;;
4448;SDS011;2237;51.870;6.160;2023-05-07T07:16:13;11.30;;;7.47;;
4448;SDS011;2237;51.870;6.160;2023-05-07T07:18:39;12.27;;;8.00;;
4448;SDS011;2237;51.870;6.160;2023-05-07T07:21:05;12.07;;;8.27;;
4448;SDS011;2237;51.870;6.160;2023-05-07T07:23:32;9.13;;;6.47;;
4448;SDS011;2237;51.870;6.160;2023-05-07T07:25:58;12.30;;;7.97;;
4448;SDS011;2237;51.870;6.160;2023-05-07T07:28:25;11.75;;;8.32;;
4448;SDS011;2237;51.870;6.160;2023-05-07T07:30:51;13.73;;;7.95;;
4448;SDS011;2237;51.870;6.160;2023-05-07T07:33:18;10.88;;;7.30;;
4448;SDS011;2237;51.870;6.160;2023-05-07T07:35:44;13.25;;;8.48;;
4448;SDS011;2237;51.870;6.160;2023-05-07T07:38:10;12.98;;;7.80;;
4448;SDS011;2237;51.870;6.160;2023-05-07T07:40:37;11.90;;;7.32;;
4448;SDS011;2237;51.870;6.160;2023-05-07T07:43:03;12.05;;;7.82;;
4448;SDS011;2237;51.870;6.160;2023-05-07T07:45:30;13.00;;;7.90;;
4448;SDS011;2237;51.870;6.160;2023-05-07T07:47:57;10.93;;;7.75;;
4448;SDS011;2237;51.870;6.160;2023-05-07T07:50:23;11.95;;;7.30;;
4448;SDS011;2237;51.870;6.160;2023-05-07T07:53:09;10.10;;;6.95;;
4448;SDS011;2237;51.870;6.160;2023-05-07T07:55:38;10.48;;;7.43;;
4448;SDS011;2237;51.870;6.160;2023-05-07T07:58:06;13.23;;;7.68;;
4448;SDS011;2237;51.870;6.160;2023-05-07T08:00:32;9.88;;;7.00;;
4448;SDS011;2237;51.870;6.160;2023-05-07T08:02:58;10.65;;;7.00;;
4448;SDS011;2237;51.870;6.160;2023-05-07T08:05:25;12.00;;;7.25;;
4448;SDS011;2237;51.870;6.160;2023-05-07T08:07:51;12.32;;;7.15;;
4448;SDS011;2237;51.870;6.160;2023-05-07T08:10:19;11.43;;;7.47;;
4448;SDS011;2237;51.870;6.160;2023-05-07T08:12:50;10.38;;;7.32;;
4448;SDS011;2237;51.870;6.160;2023-05-07T08:15:17;13.98;;;6.68;;
4448;SDS011;2237;51.870;6.160;2023-05-07T08:17:43;9.23;;;6.45;;
4448;SDS011;2237;51.870;6.160;2023-05-07T08:20:10;9.85;;;6.50;;
4448;SDS011;2237;51.870;6.160;2023-05-07T08:22:37;8.95;;;6.80;;
4448;SDS011;2237;51.870;6.160;2023-05-07T08:25:03;10.73;;;7.53;;
4448;SDS011;2237;51.870;6.160;2023-05-07T08:27:30;9.25;;;6.55;;
4448;SDS011;2237;51.870;6.160;2023-05-07T08:29:56;10.00;;;6.93;;
4448;SDS011;2237;51.870;6.160;2023-05-07T08:32:23;8.63;;;6.43;;
4448;SDS011;2237;51.870;6.160;2023-05-07T08:34:49;9.98;;;6.32;;
4448;SDS011;2237;51.870;6.160;2023-05-07T08:37:15;10.75;;;6.75;;
4448;SDS011;2237;51.870;6.160;2023-05-07T08:39:42;10.77;;;6.20;;
4448;SDS011;2237;51.870;6.160;2023-05-07T08:42:08;9.80;;;6.45;;
4448;SDS011;2237;51.870;6.160;2023-05-07T08:44:37;9.63;;;6.28;;
4448;SDS011;2237;51.870;6.160;2023-05-07T08:47:06;8.55;;;5.15;;
4448;SDS011;2237;51.870;6.160;2023-05-07T08:49:33;7.95;;;5.75;;
4448;SDS011;2237;51.870;6.160;2023-05-07T08:52:00;9.40;;;5.90;;
4448;SDS011;2237;51.870;6.160;2023-05-07T08:54:27;9.93;;;5.88;;
4448;SDS011;2237;51.870;6.160;2023-05-07T08:56:55;10.30;;;6.57;;
4448;SDS011;2237;51.870;6.160;2023-05-07T08:59:21;11.77;;;6.57;;
4448;SDS011;2237;51.870;6.160;2023-05-07T09:01:47;9.10;;;5.90;;
4448;SDS011;2237;51.870;6.160;2023-05-07T09:04:14;9.85;;;6.00;;
4448;SDS011;2237;51.870;6.160;2023-05-07T09:06:41;7.65;;;5.50;;
4448;SDS011;2237;51.870;6.160;2023-05-07T09:09:08;7.40;;;4.80;;
4448;SDS011;2237;51.870;6.160;2023-05-07T09:11:34;10.02;;;5.15;;
4448;SDS011;2237;51.870;6.160;2023-05-07T09:14:00;6.95;;;5.07;;
4448;SDS011;2237;51.870;6.160;2023-05-07T09:16:29;8.52;;;5.07;;
4448;SDS011;2237;51.870;6.160;2023-05-07T09:18:57;9.02;;;5.30;;
4448;SDS011;2237;51.870;6.160;2023-05-07T09:21:24;10.55;;;5.72;;
4448;SDS011;2237;51.870;6.160;2023-05-07T09:23:52;8.88;;;5.03;;
4448;SDS011;2237;51.870;6.160;2023-05-07T09:26:22;9.20;;;4.88;;
4448;SDS011;2237;51.870;6.160;2023-05-07T09:28:50;7.32;;;5.00;;
4448;SDS011;2237;51.870;6.160;2023-05-07T09:31:17;8.23;;;4.90;;
4448;SDS011;2237;51.870;6.160;2023-05-07T09:33:46;7.95;;;5.00;;
4448;SDS011;2237;51.870;6.160;2023-05-07T09:36:13;8.63;;;4.15;;
4448;SDS011;2237;51.870;6.160;2023-05-07T09:38:40;7.57;;;4.05;;
4448;SDS011;2237;51.870;6.160;2023-05-07T09:41:07;7.40;;;4.22;;
4448;SDS011;2237;51.870;6.160;2023-05-07T09:43:36;9.20;;;4.45;;
4448;SDS011;2237;51.870;6.160;2023-05-07T09:46:13;5.10;;;3.80;;
4448;SDS011;2237;51.870;6.160;2023-05-07T09:48:42;8.25;;;4.15;;
4448;SDS011;2237;51.870;6.160;2023-05-07T09:54:11;6.15;;;4.22;;
4448;SDS011;2237;51.870;6.160;2023-05-07T09:56:38;7.93;;;4.60;;
4448;SDS011;2237;51.870;6.160;2023-05-07T09:59:08;5.82;;;4.10;;
4448;SDS011;2237;51.870;6.160;2023-05-07T10:01:40;7.32;;;4.57;;
4448;SDS011;2237;51.870;6.160;2023-05-07T10:04:09;9.43;;;4.50;;
4448;SDS011;2237;51.870;6.160;2023-05-07T10:06:37;7.20;;;4.70;;
4448;SDS011;2237;51.870;6.160;2023-05-07T10:09:04;4.70;;;3.50;;
4448;SDS011;2237;51.870;6.160;2023-05-07T10:11:32;7.90;;;4.30;;
4448;SDS011;2237;51.870;6.160;2023-05-07T10:14:00;6.93;;;4.32;;
4448;SDS011;2237;51.870;6.160;2023-05-07T10:16:30;7.53;;;4.80;;
4448;SDS011;2237;51.870;6.160;2023-05-07T10:18:59;10.70;;;5.05;;
4448;SDS011;2237;51.870;6.160;2023-05-07T10:21:27;9.45;;;4.65;;
4448;SDS011;2237;51.870;6.160;2023-05-07T10:24:07;9.52;;;4.43;;
4448;SDS011;2237;51.870;6.160;2023-05-07T10:26:40;7.22;;;4.50;;
4448;SDS011;2237;51.870;6.160;2023-05-07T10:34:47;7.88;;;4.20;;
4448;SDS011;2237;51.870;6.160;2023-05-07T10:37:16;5.60;;;4.38;;
4448;SDS011;2237;51.870;6.160;2023-05-07T10:39:44;8.38;;;4.85;;
4448;SDS011;2237;51.870;6.160;2023-05-07T10:42:11;8.13;;;4.82;;
4448;SDS011;2237;51.870;6.160;2023-05-07T10:44:39;7.20;;;5.10;;
4448;SDS011;2237;51.870;6.160;2023-05-07T10:49:32;7.72;;;4.75;;
4448;SDS011;2237;51.870;6.160;2023-05-07T10:52:32;6.40;;;4.50;;
4448;SDS011;2237;51.870;6.160;2023-05-07T10:55:18;6.95;;;4.50;;
4448;SDS011;2237;51.870;6.160;2023-05-07T10:57:47;5.65;;;3.80;;
4448;SDS011;2237;51.870;6.160;2023-05-07T11:05:27;6.38;;;4.30;;
4448;SDS011;2237;51.870;6.160;2023-05-07T11:07:55;8.25;;;4.60;;
4448;SDS011;2237;51.870;6.160;2023-05-07T11:13:18;5.80;;;3.42;;
4448;SDS011;2237;51.870;6.160;2023-05-07T11:16:05;6.68;;;4.88;;
4448;SDS011;2237;51.870;6.160;2023-05-07T11:18:47;6.55;;;4.60;;
4448;SDS011;2237;51.870;6.160;2023-05-07T11:21:34;6.75;;;4.25;;
4448;SDS011;2237;51.870;6.160;2023-05-07T11:24:04;6.50;;;4.68;;
4448;SDS011;2237;51.870;6.160;2023-05-07T11:26:44;5.03;;;3.58;;
4448;SDS011;2237;51.870;6.160;2023-05-07T11:29:16;6.93;;;3.95;;
4448;SDS011;2237;51.870;6.160;2023-05-07T11:31:51;5.18;;;3.25;;
4448;SDS011;2237;51.870;6.160;2023-05-07T11:34:23;7.25;;;4.25;;
4448;SDS011;2237;51.870;6.160;2023-05-07T11:36:50;4.78;;;3.10;;
4448;SDS011;2237;51.870;6.160;2023-05-07T11:39:30;5.22;;;3.25;;
4448;SDS011;2237;51.870;6.160;2023-05-07T11:42:02;5.13;;;2.97;;
4448;SDS011;2237;51.870;6.160;2023-05-07T11:44:44;6.17;;;3.30;;
4448;SDS011;2237;51.870;6.160;2023-05-07T11:47:16;5.13;;;3.47;;
4448;SDS011;2237;51.870;6.160;2023-05-07T11:49:51;7.47;;;3.65;;
4448;SDS011;2237;51.870;6.160;2023-05-07T11:52:19;6.32;;;4.00;;
4448;SDS011;2237;51.870;6.160;2023-05-07T11:54:54;6.18;;;3.13;;
4448;SDS011;2237;51.870;6.160;2023-05-07T11:57:22;4.85;;;3.30;;
4448;SDS011;2237;51.870;6.160;2023-05-07T11:59:53;5.45;;;3.47;;
4448;SDS011;2237;51.870;6.160;2023-05-07T12:02:20;7.18;;;4.10;;
4448;SDS011;2237;51.870;6.160;2023-05-07T12:04:47;5.95;;;3.50;;
4448;SDS011;2237;51.870;6.160;2023-05-07T12:07:14;7.13;;;3.67;;
4448;SDS011;2237;51.870;6.160;2023-05-07T12:09:41;6.20;;;4.03;;
4448;SDS011;2237;51.870;6.160;2023-05-07T12:12:08;6.85;;;4.30;;
4448;SDS011;2237;51.870;6.160;2023-05-07T12:14:39;5.88;;;3.83;;
4448;SDS011;2237;51.870;6.160;2023-05-07T12:17:09;9.57;;;4.15;;
4448;SDS011;2237;51.870;6.160;2023-05-07T12:19:39;6.63;;;3.97;;
4448;SDS011;2237;51.870;6.160;2023-05-07T12:22:07;6.22;;;4.03;;
4448;SDS011;2237;51.870;6.160;2023-05-07T12:24:56;8.07;;;3.85;;
4448;SDS011;2237;51.870;6.160;2023-05-07T12:27:24;7.72;;;4.00;;
4448;SDS011;2237;51.870;6.160;2023-05-07T12:29:51;5.50;;;3.60;;
4448;SDS011;2237;51.870;6.160;2023-05-07T12:32:18;7.13;;;4.35;;
4448;SDS011;2237;51.870;6.160;2023-05-07T12:34:50;7.20;;;4.03;;
4448;SDS011;2237;51.870;6.160;2023-05-07T12:37:25;7.57;;;4.55;;
4448;SDS011;2237;51.870;6.160;2023-05-07T12:40:34;7.60;;;3.78;;
4448;SDS011;2237;51.870;6.160;2023-05-07T12:42:52;4.78;;;3.80;;
4448;SDS011;2237;51.870;6.160;2023-05-07T12:45:20;5.70;;;3.80;;
4448;SDS011;2237;51.870;6.160;2023-05-07T12:47:47;8.23;;;4.55;;
4448;SDS011;2237;51.870;6.160;2023-05-07T12:50:13;8.23;;;4.18;;
4448;SDS011;2237;51.870;6.160;2023-05-07T12:52:42;5.50;;;4.15;;
4448;SDS011;2237;51.870;6.160;2023-05-07T12:58:00;6.20;;;4.05;;
4448;SDS011;2237;51.870;6.160;2023-05-07T13:00:38;7.28;;;3.50;;
4448;SDS011;2237;51.870;6.160;2023-05-07T13:03:04;7.10;;;4.40;;
4448;SDS011;2237;51.870;6.160;2023-05-07T13:05:31;6.95;;;3.88;;
4448;SDS011;2237;51.870;6.160;2023-05-07T13:07:58;9.15;;;3.72;;
4448;SDS011;2237;51.870;6.160;2023-05-07T13:10:25;7.28;;;3.88;;
4448;SDS011;2237;51.870;6.160;2023-05-07T13:12:51;5.05;;;3.38;;
4448;SDS011;2237;51.870;6.160;2023-05-07T13:15:18;5.85;;;3.40;;
4448;SDS011;2237;51.870;6.160;2023-05-07T13:17:45;7.30;;;3.40;;
4448;SDS011;2237;51.870;6.160;2023-05-07T13:20:12;5.32;;;3.38;;
4448;SDS011;2237;51.870;6.160;2023-05-07T13:22:39;6.45;;;3.58;;
4448;SDS011;2237;51.870;6.160;2023-05-07T13:25:06;4.95;;;3.92;;
4448;SDS011;2237;51.870;6.160;2023-05-07T13:27:33;11.13;;;3.58;;
4448;SDS011;2237;51.870;6.160;2023-05-07T13:30:03;7.22;;;4.30;;
4448;SDS011;2237;51.870;6.160;2023-05-07T13:32:30;7.20;;;3.67;;
4448;SDS011;2237;51.870;6.160;2023-05-07T13:34:57;6.15;;;3.50;;
4448;SDS011;2237;51.870;6.160;2023-05-07T13:37:24;6.57;;;3.70;;
4448;SDS011;2237;51.870;6.160;2023-05-07T13:39:50;5.18;;;3.47;;
4448;SDS011;2237;51.870;6.160;2023-05-07T13:42:17;6.72;;;3.28;;
4448;SDS011;2237;51.870;6.160;2023-05-07T13:44:43;5.13;;;3.22;;
4448;SDS011;2237;51.870;6.160;2023-05-07T13:47:10;6.32;;;3.70;;
4448;SDS011;2237;51.870;6.160;2023-05-07T13:49:36;6.55;;;4.05;;
4448;SDS011;2237;51.870;6.160;2023-05-07T13:52:03;8.88;;;3.92;;
4448;SDS011;2237;51.870;6.160;2023-05-07T13:54:29;6.18;;;4.30;;
4448;SDS011;2237;51.870;6.160;2023-05-07T13:56:55;5.57;;;3.80;;
4448;SDS011;2237;51.870;6.160;2023-05-07T13:59:22;7.10;;;3.90;;
4448;SDS011;2237;51.870;6.160;2023-05-07T14:01:48;7.55;;;4.03;;
4448;SDS011;2237;51.870;6.160;2023-05-07T14:04:15;6.13;;;4.13;;
4448;SDS011;2237;51.870;6.160;2023-05-07T14:06:42;5.55;;;3.60;;
4448;SDS011;2237;51.870;6.160;2023-05-07T14:09:08;7.07;;;4.20;;
4448;SDS011;2237;51.870;6.160;2023-05-07T14:11:35;9.68;;;4.28;;
4448;SDS011;2237;51.870;6.160;2023-05-07T14:14:01;8.40;;;3.97;;
4448;SDS011;2237;51.870;6.160;2023-05-07T14:16:28;5.90;;;3.50;;
4448;SDS011;2237;51.870;6.160;2023-05-07T14:18:54;5.28;;;3.60;;
4448;SDS011;2237;51.870;6.160;2023-05-07T14:21:23;7.82;;;3.78;;
4448;SDS011;2237;51.870;6.160;2023-05-07T14:23:49;6.15;;;3.17;;
4448;SDS011;2237;51.870;6.160;2023-05-07T14:26:16;5.72;;;3.20;;
4448;SDS011;2237;51.870;6.160;2023-05-07T14:28:42;5.85;;;3.30;;
4448;SDS011;2237;51.870;6.160;2023-05-07T14:31:12;5.05;;;3.05;;
4448;SDS011;2237;51.870;6.160;2023-05-07T14:33:38;4.38;;;2.72;;
4448;SDS011;2237;51.870;6.160;2023-05-07T14:36:07;5.93;;;2.97;;
4448;SDS011;2237;51.870;6.160;2023-05-07T14:38:34;6.45;;;3.40;;
4448;SDS011;2237;51.870;6.160;2023-05-07T14:41:00;7.97;;;3.80;;
4448;SDS011;2237;51.870;6.160;2023-05-07T14:43:26;6.97;;;3.60;;
4448;SDS011;2237;51.870;6.160;2023-05-07T14:45:53;8.50;;;3.60;;
4448;SDS011;2237;51.870;6.160;2023-05-07T14:48:19;5.72;;;3.60;;
4448;SDS011;2237;51.870;6.160;2023-05-07T14:50:46;5.65;;;3.60;;
4448;SDS011;2237;51.870;6.160;2023-05-07T14:53:14;6.65;;;3.83;;
4448;SDS011;2237;51.870;6.160;2023-05-07T14:55:40;6.97;;;3.63;;
4448;SDS011;2237;51.870;6.160;2023-05-07T14:58:07;7.00;;;3.65;;
4448;SDS011;2237;51.870;6.160;2023-05-07T15:00:33;6.78;;;3.30;;
4448;SDS011;2237;51.870;6.160;2023-05-07T15:03:07;6.35;;;3.70;;
4448;SDS011;2237;51.870;6.160;2023-05-07T15:05:36;6.70;;;4.10;;
4448;SDS011;2237;51.870;6.160;2023-05-07T15:08:03;7.45;;;4.20;;
4448;SDS011;2237;51.870;6.160;2023-05-07T15:10:30;6.25;;;4.57;;
4448;SDS011;2237;51.870;6.160;2023-05-07T15:12:56;8.60;;;5.10;;
4448;SDS011;2237;51.870;6.160;2023-05-07T15:15:22;9.38;;;5.18;;
4448;SDS011;2237;51.870;6.160;2023-05-07T15:17:49;7.60;;;5.68;;
4448;SDS011;2237;51.870;6.160;2023-05-07T15:20:15;13.30;;;5.82;;
4448;SDS011;2237;51.870;6.160;2023-05-07T15:22:42;12.35;;;5.93;;
4448;SDS011;2237;51.870;6.160;2023-05-07T15:25:08;10.95;;;7.53;;
4448;SDS011;2237;51.870;6.160;2023-05-07T15:27:35;14.30;;;9.32;;
4448;SDS011;2237;51.870;6.160;2023-05-07T15:30:02;12.30;;;6.72;;
4448;SDS011;2237;51.870;6.160;2023-05-07T15:32:29;8.93;;;5.38;;